createdAt,value
2019-06-01T00:00:50.537Z,6.76
2019-06-01T00:05:58.386Z,7.21
2019-06-01T00:11:06.053Z,6.58
2019-06-01T00:16:13.872Z,7.89
2019-06-01T00:21:21.591Z,9.88
2019-06-01T00:26:29.515Z,9.92
2019-06-01T00:31:37.165Z,7.99
2019-06-01T00:36:45.638Z,9.59
2019-06-01T00:41:52.446Z,8.41
2019-06-01T00:46:59.462Z,12.95
2019-06-01T00:52:07.290Z,9.61
2019-06-01T00:57:14.972Z,10.59
2019-06-01T01:02:22.848Z,10.73
2019-06-01T01:07:30.683Z,9.97
2019-06-01T01:12:38.289Z,10.65
2019-06-01T01:17:45.965Z,9.03
2019-06-01T01:22:54.368Z,12.62
2019-06-01T01:28:01.000Z,11.16
2019-06-01T01:33:09.103Z,10.16
2019-06-01T01:38:16.910Z,9.91
2019-06-01T01:43:24.647Z,9.38
2019-06-01T01:48:32.490Z,10.68
2019-06-01T01:53:40.561Z,10.64
2019-06-01T01:58:48.489Z,13.25
2019-06-01T02:03:57.359Z,10.43
2019-06-01T02:09:03.507Z,10.16
2019-06-01T02:14:11.193Z,13.23
2019-06-01T02:19:20.373Z,10.38
2019-06-01T02:24:28.145Z,10.40
2019-06-01T02:29:35.939Z,10.22
2019-06-01T02:34:43.693Z,10.62
2019-06-01T02:39:51.590Z,12.77
2019-06-01T02:44:59.304Z,11.68
2019-06-01T02:50:07.114Z,12.90
2019-06-01T02:55:14.829Z,10.89
2019-06-01T03:00:22.931Z,11.24
2019-06-01T03:05:30.606Z,15.10
2019-06-01T03:10:39.465Z,11.25
2019-06-01T03:15:47.257Z,12.79
2019-06-01T03:20:55.066Z,12.04
2019-06-01T03:26:04.196Z,12.73
2019-06-01T03:31:10.684Z,12.29
2019-06-01T03:36:17.396Z,12.34
2019-06-01T03:41:25.156Z,12.47
2019-06-01T03:46:32.869Z,11.85
2019-06-01T03:51:40.465Z,13.52
2019-06-01T03:56:48.227Z,13.34
2019-06-01T04:01:56.014Z,15.27
2019-06-01T04:07:03.625Z,13.39
2019-06-01T04:12:12.133Z,18.46
2019-06-01T04:17:18.747Z,19.64
2019-06-01T04:22:26.679Z,14.53
2019-06-01T04:27:34.348Z,18.15
2019-06-01T04:32:49.928Z,17.48
2019-06-01T04:37:49.559Z,19.23
2019-06-01T04:42:57.365Z,17.77
2019-06-01T04:48:06.288Z,19.63
2019-06-01T04:53:13.445Z,16.86
2019-06-01T04:58:21.609Z,16.94
2019-06-01T05:03:29.296Z,18.71
2019-06-01T05:08:37.897Z,17.71
2019-06-01T05:13:45.659Z,18.63
2019-06-01T05:18:53.431Z,17.46
2019-06-01T05:24:01.210Z,22.59
2019-06-01T05:29:09.370Z,18.84
2019-06-01T05:34:16.092Z,21.12
2019-06-01T05:39:23.777Z,19.72
2019-06-01T05:44:31.544Z,20.88
2019-06-01T05:49:39.179Z,19.42
2019-06-01T05:54:47.224Z,20.98
2019-06-01T05:59:55.006Z,19.55
2019-06-01T06:05:02.846Z,20.94
2019-06-01T06:10:11.960Z,17.67
2019-06-01T06:15:19.837Z,17.58
2019-06-01T06:20:27.640Z,17.10
2019-06-01T06:25:37.666Z,14.94
2019-06-01T06:30:43.072Z,14.97
2019-06-01T06:35:50.917Z,15.04
2019-06-01T06:40:58.588Z,15.03
2019-06-01T06:46:06.401Z,13.83
2019-06-01T06:51:15.133Z,13.19
2019-06-01T06:56:22.014Z,11.78
2019-06-01T07:01:28.598Z,12.88
2019-06-01T07:06:36.464Z,12.60
2019-06-01T07:11:44.739Z,13.81
2019-06-01T07:16:52.620Z,10.61
2019-06-01T07:22:00.358Z,8.11
2019-06-01T07:27:08.551Z,8.46
2019-06-01T07:32:16.389Z,8.65
2019-06-01T07:37:24.465Z,9.56
2019-06-01T07:42:33.088Z,14.66
2019-06-01T07:47:41.071Z,13.37
2019-06-01T07:52:48.774Z,14.17
2019-06-01T07:57:56.586Z,8.89
2019-06-01T08:08:07.178Z,8.25
2019-06-01T08:13:15.156Z,6.02
2019-06-01T08:18:23.919Z,10.15
2019-06-01T08:23:30.290Z,8.07
2019-06-01T08:28:37.918Z,9.42
2019-06-01T08:33:45.860Z,6.48
2019-06-01T08:38:54.048Z,5.94
2019-06-01T08:44:01.912Z,9.44
2019-06-01T08:49:10.570Z,7.17
2019-06-01T08:54:18.364Z,7.01
2019-06-01T08:59:26.242Z,6.80
2019-06-01T09:04:34.936Z,8.05
2019-06-01T09:09:41.470Z,8.13
2019-06-01T09:14:50.054Z,5.95
2019-06-01T09:19:58.093Z,8.44
2019-06-01T09:25:05.904Z,9.78
2019-06-01T09:30:14.013Z,7.03
2019-06-01T09:35:21.826Z,6.57
2019-06-01T09:40:30.423Z,6.33
2019-06-01T09:45:38.372Z,6.57
2019-06-01T09:50:45.380Z,12.14
2019-06-01T09:55:53.103Z,6.79
2019-06-01T10:01:01.284Z,7.25
2019-06-01T10:06:09.064Z,5.58
2019-06-01T10:11:17.452Z,5.25
2019-06-01T10:16:27.932Z,6.46
2019-06-01T10:21:25.673Z,6.12
2019-06-01T10:26:34.366Z,7.93
2019-06-01T10:31:41.571Z,5.46
2019-06-01T10:36:49.229Z,6.59
2019-06-01T10:41:57.476Z,5.97
2019-06-01T10:47:05.218Z,6.37
2019-06-01T10:52:13.045Z,3.83
2019-06-01T10:57:20.843Z,5.24
2019-06-01T11:02:29.649Z,3.86
2019-06-01T11:07:39.046Z,5.11
2019-06-01T11:12:46.019Z,3.98
2019-06-01T11:17:56.473Z,4.83
2019-06-01T11:22:55.300Z,4.35
2019-06-01T11:28:02.962Z,5.88
2019-06-01T11:33:10.642Z,3.19
2019-06-01T11:38:19.688Z,5.16
2019-06-01T11:43:27.493Z,4.14
2019-06-01T11:48:35.263Z,4.26
2019-06-01T11:53:43.434Z,3.71
2019-06-01T11:58:50.251Z,3.31
2019-06-01T12:03:58.064Z,3.50
2019-06-01T12:09:05.674Z,4.56
2019-06-01T12:14:13.529Z,3.34
2019-06-01T12:19:21.150Z,4.08
2019-06-01T12:24:28.888Z,2.96
2019-06-01T12:29:37.429Z,4.12
2019-06-01T12:34:44.113Z,3.84
2019-06-01T12:39:54.306Z,2.98
2019-06-01T12:45:00.166Z,3.81
2019-06-01T12:50:07.828Z,3.93
2019-06-01T12:55:15.685Z,4.21
2019-06-01T13:00:23.410Z,6.10
2019-06-01T13:05:31.065Z,3.11
2019-06-01T13:10:38.857Z,3.54
2019-06-01T13:15:47.338Z,3.83
2019-06-01T13:20:57.240Z,3.82
2019-06-01T13:25:54.876Z,4.70
2019-06-01T13:31:02.582Z,4.23
2019-06-01T13:36:10.334Z,5.61
2019-06-01T13:41:18.115Z,2.93
2019-06-01T13:46:25.841Z,3.02
2019-06-01T13:51:34.468Z,4.00
2019-06-01T13:56:42.264Z,3.54
2019-06-01T14:01:51.488Z,3.05
2019-06-01T14:06:58.160Z,2.84
2019-06-01T14:12:05.806Z,3.15
2019-06-01T14:17:13.529Z,4.04
2019-06-01T14:22:22.129Z,4.58
2019-06-01T14:27:29.996Z,3.87
2019-06-01T14:32:37.841Z,4.81
2019-06-01T14:37:46.652Z,3.25
2019-06-01T14:42:53.624Z,5.22
2019-06-01T14:47:59.945Z,3.32
2019-06-01T14:53:07.717Z,4.88
2019-06-01T14:58:15.411Z,4.09
2019-06-01T15:03:23.043Z,3.68
2019-06-01T15:08:30.869Z,4.18
2019-06-01T15:13:38.589Z,7.68
2019-06-01T15:18:46.360Z,46.83
2019-06-01T15:23:54.013Z,6.59
2019-06-01T15:29:03.085Z,6.66
2019-06-01T15:34:09.241Z,7.59
2019-06-01T15:39:24.879Z,7.45
2019-06-01T15:44:25.264Z,8.56
2019-06-01T15:49:33.410Z,8.47
2019-06-01T15:54:45.029Z,6.46
2019-06-01T15:59:42.718Z,9.14
2019-06-01T16:04:50.485Z,7.02
2019-06-01T16:09:59.391Z,6.16
2019-06-01T16:15:05.572Z,6.16
2019-06-01T16:20:13.377Z,7.81
2019-06-01T16:25:21.007Z,7.99
2019-06-01T16:30:28.896Z,7.95
2019-06-01T16:35:36.640Z,9.39
2019-06-01T16:40:44.266Z,10.29
2019-06-01T16:45:52.252Z,9.73
2019-06-01T16:51:01.852Z,9.19
2019-06-01T16:56:08.114Z,10.30
2019-06-01T17:01:15.758Z,7.29
2019-06-01T17:06:25.411Z,7.83
2019-06-01T17:11:33.317Z,7.43
2019-06-01T17:16:42.248Z,7.83
2019-06-01T17:21:49.973Z,6.98
2019-06-01T17:26:57.899Z,8.32
2019-06-01T17:32:22.727Z,8.01
2019-06-01T17:37:13.197Z,7.88
2019-06-01T17:42:20.961Z,8.84
2019-06-01T17:47:28.849Z,10.46
2019-06-01T17:52:36.590Z,8.33
2019-06-01T17:57:44.482Z,6.86
2019-06-01T18:02:52.219Z,7.83
2019-06-01T18:08:01.874Z,8.99
2019-06-01T18:13:08.651Z,7.11
2019-06-01T18:18:16.665Z,9.03
2019-06-01T18:23:24.654Z,7.85
2019-06-01T18:28:32.732Z,9.08
2019-06-01T18:33:40.461Z,8.56
2019-06-01T18:38:49.502Z,7.49
2019-06-01T18:43:58.231Z,5.94
2019-06-01T18:49:06.106Z,7.42
2019-06-01T18:54:15.274Z,6.36
2019-06-01T18:59:23.812Z,7.59
2019-06-01T19:04:30.526Z,6.49
2019-06-01T19:09:38.220Z,9.23
2019-06-01T19:14:47.092Z,7.54
2019-06-01T19:19:54.843Z,5.51
2019-06-01T19:25:02.583Z,8.55
2019-06-01T19:30:10.829Z,5.96
2019-06-01T19:35:17.799Z,5.42
2019-06-01T19:40:25.809Z,5.30
2019-06-01T19:45:34.704Z,4.21
2019-06-01T19:50:42.785Z,4.82
2019-06-01T19:55:50.473Z,4.80
2019-06-01T20:00:58.260Z,4.55
2019-06-01T20:06:06.062Z,6.50
2019-06-01T20:11:15.027Z,5.11
2019-06-01T20:16:22.900Z,5.45
2019-06-01T20:21:28.901Z,5.95
2019-06-01T20:26:42.089Z,4.01
2019-06-01T20:31:44.021Z,4.01
2019-06-01T20:36:51.966Z,4.73
2019-06-01T20:42:00.028Z,4.36
2019-06-01T20:47:07.820Z,4.84
2019-06-01T20:52:16.782Z,6.49
2019-06-01T20:57:23.972Z,7.52
2019-06-01T21:02:30.400Z,5.55
2019-06-01T21:07:38.219Z,6.87
2019-06-01T21:12:46.349Z,8.35
2019-06-01T21:17:54.310Z,6.26
2019-06-01T21:23:02.005Z,8.21
2019-06-01T21:28:14.223Z,7.93
2019-06-01T21:33:17.415Z,6.69
2019-06-01T21:38:25.768Z,8.28
2019-06-01T21:43:35.168Z,8.13
2019-06-01T21:48:39.888Z,7.98
2019-06-01T21:53:47.658Z,6.91
2019-06-01T21:58:55.572Z,6.76
2019-06-01T22:04:03.464Z,7.11
2019-06-01T22:09:11.157Z,7.33
2019-06-01T22:14:19.378Z,7.92
2019-06-01T22:19:26.159Z,6.23
2019-06-01T22:24:34.204Z,8.33
2019-06-01T22:29:42.016Z,6.64
2019-06-01T22:35:03.592Z,7.84
2019-06-01T22:39:50.396Z,8.93
2019-06-01T22:44:58.040Z,7.82
2019-06-01T22:50:05.761Z,6.55
2019-06-01T22:55:13.560Z,7.74
2019-06-01T23:00:21.487Z,6.59
2019-06-01T23:05:29.091Z,6.77
2019-06-01T23:10:36.766Z,10.30
2019-06-01T23:15:44.447Z,7.32
2019-06-01T23:20:53.108Z,5.88
2019-06-01T23:26:00.742Z,9.11
2019-06-01T23:31:08.514Z,6.93
2019-06-01T23:36:16.168Z,8.08
2019-06-01T23:41:24.494Z,8.83
2019-06-01T23:46:31.317Z,8.11
2019-06-01T23:51:39.081Z,10.86
2019-06-01T23:56:46.859Z,10.37
